sensor_id;sensor_type;location;lat;lon;timestamp;pressure;altitude;pressure_sealevel;temperature;humidity
64614;BME280;51025;37.772;-122.432;2023-07-22T00:01:13;100699.89;;;22.37;26.77
64614;BME280;51025;37.772;-122.432;2023-07-22T00:03:41;100702.44;;;22.60;26.60
64614;BME280;51025;37.772;-122.432;2023-07-22T00:06:10;100697.75;;;22.76;26.78
64614;BME280;51025;37.772;-122.432;2023-07-22T00:08:39;100692.95;;;23.89;26.55
64614;BME280;51025;37.772;-122.432;2023-07-22T00:11:08;100695.05;;;23.48;26.62
64614;BME280;51025;37.772;-122.432;2023-07-22T00:13:37;100696.97;;;22.94;27.07
64614;BME280;51025;37.772;-122.432;2023-07-22T00:16:06;100695.78;;;22.84;27.08
64614;BME280;51025;37.772;-122.432;2023-07-22T00:18:35;100690.87;;;23.50;26.90
64614;BME280;51025;37.772;-122.432;2023-07-22T00:21:03;100692.14;;;23.00;26.38
64614;BME280;51025;37.772;-122.432;2023-07-22T00:23:32;100693.27;;;23.34;26.32
64614;BME280;51025;37.772;-122.432;2023-07-22T00:26:00;100686.52;;;23.75;26.40
64614;BME280;51025;37.772;-122.432;2023-07-22T00:28:29;100686.30;;;23.52;26.62
64614;BME280;51025;37.772;-122.432;2023-07-22T00:30:57;100680.02;;;23.03;26.63
64614;BME280;51025;37.772;-122.432;2023-07-22T00:33:26;100672.05;;;22.87;26.74
64614;BME280;51025;37.772;-122.432;2023-07-22T00:35:54;100669.69;;;22.95;26.44
64614;BME280;51025;37.772;-122.432;2023-07-22T00:38:22;100674.32;;;23.45;26.64
64614;BME280;51025;37.772;-122.432;2023-07-22T00:40:50;100676.18;;;22.60;26.74
64614;BME280;51025;37.772;-122.432;2023-07-22T00:43:18;100676.86;;;23.79;26.41
64614;BME280;51025;37.772;-122.432;2023-07-22T00:45:47;100674.22;;;22.31;26.65
64614;BME280;51025;37.772;-122.432;2023-07-22T00:48:16;100679.56;;;23.23;26.50
64614;BME280;51025;37.772;-122.432;2023-07-22T00:50:44;100674.01;;;23.23;26.24
64614;BME280;51025;37.772;-122.432;2023-07-22T00:53:13;100669.35;;;23.23;26.49
64614;BME280;51025;37.772;-122.432;2023-07-22T00:55:42;100674.11;;;22.46;26.84
64614;BME280;51025;37.772;-122.432;2023-07-22T00:58:11;100673.64;;;23.62;26.52
64614;BME280;51025;37.772;-122.432;2023-07-22T01:00:39;100673.08;;;23.39;26.36
64614;BME280;51025;37.772;-122.432;2023-07-22T01:03:08;100678.30;;;22.96;26.47
64614;BME280;51025;37.772;-122.432;2023-07-22T01:05:38;100679.88;;;23.30;26.47
64614;BME280;51025;37.772;-122.432;2023-07-22T01:08:08;100682.81;;;23.22;26.51
64614;BME280;51025;37.772;-122.432;2023-07-22T01:10:37;100674.95;;;23.24;26.80
64614;BME280;51025;37.772;-122.432;2023-07-22T01:13:05;100676.98;;;22.83;26.80
64614;BME280;51025;37.772;-122.432;2023-07-22T01:15:34;100668.18;;;24.10;26.14
64614;BME280;51025;37.772;-122.432;2023-07-22T01:18:04;100664.11;;;24.02;26.19
64614;BME280;51025;37.772;-122.432;2023-07-22T01:20:32;100668.61;;;23.98;26.26
64614;BME280;51025;37.772;-122.432;2023-07-22T01:23:01;100663.67;;;23.65;26.49
64614;BME280;51025;37.772;-122.432;2023-07-22T01:25:30;100667.13;;;24.17;26.38
64614;BME280;51025;37.772;-122.432;2023-07-22T01:27:59;100661.99;;;23.62;26.56
64614;BME280;51025;37.772;-122.432;2023-07-22T01:30:27;100662.04;;;23.63;26.60
64614;BME280;51025;37.772;-122.432;2023-07-22T01:32:56;100663.16;;;23.56;25.99
64614;BME280;51025;37.772;-122.432;2023-07-22T01:35:24;100659.47;;;23.41;26.66
64614;BME280;51025;37.772;-122.432;2023-07-22T01:37:52;100662.47;;;22.80;26.59
64614;BME280;51025;37.772;-122.432;2023-07-22T01:40:20;100655.99;;;23.54;26.24
64614;BME280;51025;37.772;-122.432;2023-07-22T01:42:49;100658.35;;;22.87;26.49
64614;BME280;51025;37.772;-122.432;2023-07-22T01:45:17;100657.72;;;23.60;26.50
64614;BME280;51025;37.772;-122.432;2023-07-22T01:47:45;100664.62;;;22.08;26.79
64614;BME280;51025;37.772;-122.432;2023-07-22T01:50:13;100662.08;;;23.67;26.43
64614;BME280;51025;37.772;-122.432;2023-07-22T01:52:42;100664.64;;;22.52;26.67
64614;BME280;51025;37.772;-122.432;2023-07-22T01:55:10;100661.05;;;23.12;26.44
64614;BME280;51025;37.772;-122.432;2023-07-22T01:57:39;100661.55;;;23.29;26.64
64614;BME280;51025;37.772;-122.432;2023-07-22T02:00:08;100655.19;;;23.61;26.37
64614;BME280;51025;37.772;-122.432;2023-07-22T02:02:36;100658.18;;;23.19;26.71
64614;BME280;51025;37.772;-122.432;2023-07-22T02:05:06;100657.02;;;23.03;26.81
64614;BME280;51025;37.772;-122.432;2023-07-22T02:07:34;100652.58;;;24.21;26.10
64614;BME280;51025;37.772;-122.432;2023-07-22T02:10:03;100657.14;;;23.65;26.30
64614;BME280;51025;37.772;-122.432;2023-07-22T02:12:31;100660.52;;;23.20;26.61
64614;BME280;51025;37.772;-122.432;2023-07-22T02:14:59;100652.70;;;22.33;26.96
64614;BME280;51025;37.772;-122.432;2023-07-22T02:17:27;100653.19;;;22.95;26.81
64614;BME280;51025;37.772;-122.432;2023-07-22T02:19:55;100654.52;;;22.85;26.52
64614;BME280;51025;37.772;-122.432;2023-07-22T02:22:24;100641.52;;;23.53;26.34
64614;BME280;51025;37.772;-122.432;2023-07-22T02:24:53;100650.25;;;22.51;26.54
64614;BME280;51025;37.772;-122.432;2023-07-22T02:27:22;100653.00;;;22.40;26.90
64614;BME280;51025;37.772;-122.432;2023-07-22T02:29:50;100657.18;;;22.11;26.82
64614;BME280;51025;37.772;-122.432;2023-07-22T02:32:19;100654.02;;;22.35;26.92
64614;BME280;51025;37.772;-122.432;2023-07-22T02:34:46;100658.07;;;21.40;27.12
64614;BME280;51025;37.772;-122.432;2023-07-22T02:37:14;100655.42;;;22.87;26.83
64614;BME280;51025;37.772;-122.432;2023-07-22T02:39:43;100662.88;;;22.14;27.05
64614;BME280;51025;37.772;-122.432;2023-07-22T02:42:11;100658.86;;;22.44;27.16
64614;BME280;51025;37.772;-122.432;2023-07-22T02:44:40;100662.02;;;22.59;27.07
64614;BME280;51025;37.772;-122.432;2023-07-22T02:47:08;100676.95;;;22.58;27.08
64614;BME280;51025;37.772;-122.432;2023-07-22T02:49:37;100672.81;;;23.38;26.70
64614;BME280;51025;37.772;-122.432;2023-07-22T02:52:06;100673.74;;;22.84;26.83
64614;BME280;51025;37.772;-122.432;2023-07-22T02:54:40;100671.16;;;22.81;26.82
64614;BME280;51025;37.772;-122.432;2023-07-22T02:57:08;100663.72;;;22.69;26.89
64614;BME280;51025;37.772;-122.432;2023-07-22T02:59:37;100659.55;;;22.35;27.17
64614;BME280;51025;37.772;-122.432;2023-07-22T03:02:05;100655.10;;;22.78;26.81
64614;BME280;51025;37.772;-122.432;2023-07-22T03:04:34;100655.41;;;22.94;26.96
64614;BME280;51025;37.772;-122.432;2023-07-22T03:07:02;100653.08;;;22.15;27.35
64614;BME280;51025;37.772;-122.432;2023-07-22T03:09:30;100650.67;;;22.57;26.96
64614;BME280;51025;37.772;-122.432;2023-07-22T03:11:59;100657.45;;;22.16;26.93
64614;BME280;51025;37.772;-122.432;2023-07-22T03:14:27;100659.33;;;22.16;27.29
64614;BME280;51025;37.772;-122.432;2023-07-22T03:16:56;100661.83;;;22.44;27.06
64614;BME280;51025;37.772;-122.432;2023-07-22T03:19:25;100663.22;;;22.40;27.36
64614;BME280;51025;37.772;-122.432;2023-07-22T03:21:53;100668.78;;;22.26;26.83
64614;BME280;51025;37.772;-122.432;2023-07-22T03:24:21;100665.28;;;22.41;27.03
64614;BME280;51025;37.772;-122.432;2023-07-22T03:26:50;100667.93;;;21.70;27.00
64614;BME280;51025;37.772;-122.432;2023-07-22T03:29:18;100668.45;;;22.84;26.97
64614;BME280;51025;37.772;-122.432;2023-07-22T03:31:46;100672.58;;;21.87;26.80
64614;BME280;51025;37.772;-122.432;2023-07-22T03:34:15;100677.09;;;22.29;27.12
64614;BME280;51025;37.772;-122.432;2023-07-22T03:36:44;100675.89;;;22.24;26.78
64614;BME280;51025;37.772;-122.432;2023-07-22T03:39:12;100668.61;;;22.23;27.10
64614;BME280;51025;37.772;-122.432;2023-07-22T03:41:41;100665.71;;;21.90;27.46
64614;BME280;51025;37.772;-122.432;2023-07-22T03:44:09;100661.56;;;23.07;27.11
64614;BME280;51025;37.772;-122.432;2023-07-22T03:46:37;100656.63;;;22.45;26.90
64614;BME280;51025;37.772;-122.432;2023-07-22T03:49:06;100657.29;;;22.42;26.92
64614;BME280;51025;37.772;-122.432;2023-07-22T03:51:35;100661.98;;;21.92;27.33
64614;BME280;51025;37.772;-122.432;2023-07-22T03:54:03;100661.17;;;22.54;27.11
64614;BME280;51025;37.772;-122.432;2023-07-22T03:56:31;100659.15;;;22.21;27.37
64614;BME280;51025;37.772;-122.432;2023-07-22T03:58:59;100657.57;;;22.28;27.01
64614;BME280;51025;37.772;-122.432;2023-07-22T04:01:28;100654.23;;;22.33;27.26
64614;BME280;51025;37.772;-122.432;2023-07-22T04:03:56;100660.83;;;22.66;26.72
64614;BME280;51025;37.772;-122.432;2023-07-22T04:06:25;100661.93;;;22.13;27.45
64614;BME280;51025;37.772;-122.432;2023-07-22T04:08:54;100666.13;;;22.22;26.72
64614;BME280;51025;37.772;-122.432;2023-07-22T04:11:22;100663.90;;;22.33;27.21
64614;BME280;51025;37.772;-122.432;2023-07-22T04:13:50;100662.83;;;22.56;27.06
64614;BME280;51025;37.772;-122.432;2023-07-22T04:16:19;100660.13;;;22.35;27.21
64614;BME280;51025;37.772;-122.432;2023-07-22T04:18:47;100659.06;;;22.00;27.21
64614;BME280;51025;37.772;-122.432;2023-07-22T04:21:16;100657.10;;;22.15;27.10
64614;BME280;51025;37.772;-122.432;2023-07-22T04:23:44;100659.43;;;21.73;27.45
64614;BME280;51025;37.772;-122.432;2023-07-22T04:26:13;100667.56;;;22.45;26.84
64614;BME280;51025;37.772;-122.432;2023-07-22T04:28:42;100678.49;;;22.30;26.61
64614;BME280;51025;37.772;-122.432;2023-07-22T04:31:10;100689.93;;;21.60;27.48
64614;BME280;51025;37.772;-122.432;2023-07-22T04:33:39;100692.79;;;21.76;27.66
64614;BME280;51025;37.772;-122.432;2023-07-22T04:36:07;100694.51;;;22.23;27.22
64614;BME280;51025;37.772;-122.432;2023-07-22T04:38:36;100691.01;;;22.79;27.12
64614;BME280;51025;37.772;-122.432;2023-07-22T04:41:05;100694.17;;;22.41;27.08
64614;BME280;51025;37.772;-122.432;2023-07-22T04:43:33;100700.17;;;21.66;27.70
64614;BME280;51025;37.772;-122.432;2023-07-22T04:46:01;100706.27;;;22.65;27.23
64614;BME280;51025;37.772;-122.432;2023-07-22T04:48:30;100705.61;;;22.04;27.36
64614;BME280;51025;37.772;-122.432;2023-07-22T04:50:58;100710.76;;;22.23;27.21
64614;BME280;51025;37.772;-122.432;2023-07-22T04:53:27;100711.62;;;22.75;27.08
64614;BME280;51025;37.772;-122.432;2023-07-22T04:55:55;100711.04;;;21.96;27.07
64614;BME280;51025;37.772;-122.432;2023-07-22T04:58:23;100714.19;;;22.01;27.46
64614;BME280;51025;37.772;-122.432;2023-07-22T05:00:52;100708.84;;;21.67;27.19
64614;BME280;51025;37.772;-122.432;2023-07-22T05:03:19;100708.33;;;22.11;27.50
64614;BME280;51025;37.772;-122.432;2023-07-22T05:05:49;100703.75;;;22.06;27.33
64614;BME280;51025;37.772;-122.432;2023-07-22T05:08:17;100703.87;;;22.35;27.79
64614;BME280;51025;37.772;-122.432;2023-07-22T05:10:46;100702.27;;;21.68;28.04
64614;BME280;51025;37.772;-122.432;2023-07-22T05:13:15;100705.48;;;22.23;28.40
64614;BME280;51025;37.772;-122.432;2023-07-22T05:15:43;100712.86;;;21.53;28.40
64614;BME280;51025;37.772;-122.432;2023-07-22T05:18:12;100725.91;;;21.72;28.49
64614;BME280;51025;37.772;-122.432;2023-07-22T05:20:40;100721.73;;;22.46;28.71
64614;BME280;51025;37.772;-122.432;2023-07-22T05:23:09;100715.54;;;22.87;28.63
64614;BME280;51025;37.772;-122.432;2023-07-22T05:25:37;100715.49;;;22.49;28.98
64614;BME280;51025;37.772;-122.432;2023-07-22T05:28:06;100711.43;;;22.64;28.87
64614;BME280;51025;37.772;-122.432;2023-07-22T05:30:34;100707.67;;;22.84;28.85
64614;BME280;51025;37.772;-122.432;2023-07-22T05:33:02;100712.63;;;22.63;28.90
64614;BME280;51025;37.772;-122.432;2023-07-22T05:35:31;100716.47;;;22.98;28.52
64614;BME280;51025;37.772;-122.432;2023-07-22T05:37:59;100721.82;;;21.94;28.70
64614;BME280;51025;37.772;-122.432;2023-07-22T05:40:28;100719.26;;;22.75;28.63
64614;BME280;51025;37.772;-122.432;2023-07-22T05:42:56;100714.97;;;22.47;28.70
64614;BME280;51025;37.772;-122.432;2023-07-22T05:45:26;100708.82;;;22.40;28.62
64614;BME280;51025;37.772;-122.432;2023-07-22T05:47:54;100709.01;;;22.50;28.56
64614;BME280;51025;37.772;-122.432;2023-07-22T05:50:23;100706.82;;;22.45;28.55
64614;BME280;51025;37.772;-122.432;2023-07-22T05:52:51;100706.58;;;21.25;28.52
64614;BME280;51025;37.772;-122.432;2023-07-22T05:55:19;100709.94;;;22.92;28.12
64614;BME280;51025;37.772;-122.432;2023-07-22T05:57:47;100709.56;;;21.74;28.30
64614;BME280;51025;37.772;-122.432;2023-07-22T06:00:16;100703.42;;;23.26;27.70
64614;BME280;51025;37.772;-122.432;2023-07-22T06:02:44;100705.15;;;22.75;28.01
64614;BME280;51025;37.772;-122.432;2023-07-22T06:05:12;100703.59;;;23.22;27.72
64614;BME280;51025;37.772;-122.432;2023-07-22T06:07:41;100708.09;;;22.74;27.99
64614;BME280;51025;37.772;-122.432;2023-07-22T06:10:10;100704.29;;;22.87;27.94
64614;BME280;51025;37.772;-122.432;2023-07-22T06:12:39;100698.18;;;22.70;28.04
64614;BME280;51025;37.772;-122.432;2023-07-22T06:15:08;100692.53;;;21.84;28.03
64614;BME280;51025;37.772;-122.432;2023-07-22T06:17:37;100686.14;;;23.05;27.71
64614;BME280;51025;37.772;-122.432;2023-07-22T06:20:07;100686.72;;;22.61;27.73
64614;BME280;51025;37.772;-122.432;2023-07-22T06:22:35;100685.16;;;23.44;27.64
64614;BME280;51025;37.772;-122.432;2023-07-22T06:25:04;100692.90;;;21.84;27.87
64614;BME280;51025;37.772;-122.432;2023-07-22T06:27:34;100689.91;;;22.50;27.90
64614;BME280;51025;37.772;-122.432;2023-07-22T06:30:02;100684.73;;;22.54;27.89
64614;BME280;51025;37.772;-122.432;2023-07-22T06:32:31;100679.91;;;22.53;27.91
64614;BME280;51025;37.772;-122.432;2023-07-22T06:34:59;100679.01;;;22.12;27.80
64614;BME280;51025;37.772;-122.432;2023-07-22T06:37:27;100680.91;;;22.53;27.78
64614;BME280;51025;37.772;-122.432;2023-07-22T06:39:56;100684.53;;;22.57;27.78
64614;BME280;51025;37.772;-122.432;2023-07-22T06:42:24;100679.63;;;22.30;28.08
64614;BME280;51025;37.772;-122.432;2023-07-22T06:44:53;100681.40;;;21.79;28.09
64614;BME280;51025;37.772;-122.432;2023-07-22T06:47:22;100679.67;;;22.28;27.97
64614;BME280;51025;37.772;-122.432;2023-07-22T06:49:50;100678.35;;;21.44;27.80
64614;BME280;51025;37.772;-122.432;2023-07-22T06:52:18;100674.85;;;21.98;27.89
64614;BME280;51025;37.772;-122.432;2023-07-22T06:54:48;100675.05;;;21.63;27.84
64614;BME280;51025;37.772;-122.432;2023-07-22T06:57:16;100675.55;;;21.94;27.84
64614;BME280;51025;37.772;-122.432;2023-07-22T06:59:45;100677.92;;;22.35;27.83
64614;BME280;51025;37.772;-122.432;2023-07-22T07:02:13;100681.58;;;22.32;27.81
64614;BME280;51025;37.772;-122.432;2023-07-22T07:04:41;100681.06;;;21.89;27.78
64614;BME280;51025;37.772;-122.432;2023-07-22T07:07:10;100683.16;;;22.17;27.92
64614;BME280;51025;37.772;-122.432;2023-07-22T07:09:38;100683.23;;;22.20;27.83
64614;BME280;51025;37.772;-122.432;2023-07-22T07:12:07;100681.07;;;22.06;27.96
64614;BME280;51025;37.772;-122.432;2023-07-22T07:14:37;100677.20;;;22.58;27.78
64614;BME280;51025;37.772;-122.432;2023-07-22T07:17:05;100676.47;;;22.08;27.86
64614;BME280;51025;37.772;-122.432;2023-07-22T07:19:34;100676.14;;;22.03;27.86
64614;BME280;51025;37.772;-122.432;2023-07-22T07:22:03;100679.31;;;22.12;27.81
64614;BME280;51025;37.772;-122.432;2023-07-22T07:24:31;100688.21;;;22.02;27.83
64614;BME280;51025;37.772;-122.432;2023-07-22T07:27:00;100690.61;;;22.11;27.78
64614;BME280;51025;37.772;-122.432;2023-07-22T07:29:29;100691.82;;;22.51;27.66
64614;BME280;51025;37.772;-122.432;2023-07-22T07:31:57;100693.99;;;21.94;27.51
64614;BME280;51025;37.772;-122.432;2023-07-22T07:34:25;100693.88;;;22.20;27.57
64614;BME280;51025;37.772;-122.432;2023-07-22T07:36:53;100691.09;;;22.11;27.68
64614;BME280;51025;37.772;-122.432;2023-07-22T07:39:21;100686.50;;;22.12;27.59
64614;BME280;51025;37.772;-122.432;2023-07-22T07:41:50;100686.62;;;22.49;27.53
64614;BME280;51025;37.772;-122.432;2023-07-22T07:44:18;100686.18;;;21.87;27.68
64614;BME280;51025;37.772;-122.432;2023-07-22T07:46:46;100685.58;;;21.25;27.57
64614;BME280;51025;37.772;-122.432;2023-07-22T07:49:15;100682.59;;;22.06;27.59
64614;BME280;51025;37.772;-122.432;2023-07-22T07:51:43;100674.02;;;22.07;27.49
64614;BME280;51025;37.772;-122.432;2023-07-22T07:54:11;100672.67;;;22.39;27.55
64614;BME280;51025;37.772;-122.432;2023-07-22T07:56:40;100675.22;;;21.90;27.62
64614;BME280;51025;37.772;-122.432;2023-07-22T07:59:08;100679.52;;;22.00;27.49
64614;BME280;51025;37.772;-122.432;2023-07-22T08:01:36;100674.26;;;21.92;27.56
64614;BME280;51025;37.772;-122.432;2023-07-22T08:04:05;100673.82;;;21.86;27.50
64614;BME280;51025;37.772;-122.432;2023-07-22T08:06:34;100669.29;;;21.98;27.45
64614;BME280;51025;37.772;-122.432;2023-07-22T08:09:03;100668.62;;;21.92;27.46
64614;BME280;51025;37.772;-122.432;2023-07-22T08:11:32;100669.39;;;21.94;27.44
64614;BME280;51025;37.772;-122.432;2023-07-22T08:14:00;100669.01;;;22.01;27.36
64614;BME280;51025;37.772;-122.432;2023-07-22T08:16:29;100669.81;;;22.48;26.98
64614;BME280;51025;37.772;-122.432;2023-07-22T08:18:58;100666.06;;;22.41;26.81
64614;BME280;51025;37.772;-122.432;2023-07-22T08:21:26;100661.02;;;23.24;26.71
64614;BME280;51025;37.772;-122.432;2023-07-22T08:23:55;100661.48;;;22.30;27.27
64614;BME280;51025;37.772;-122.432;2023-07-22T08:26:23;100655.04;;;22.18;27.35
64614;BME280;51025;37.772;-122.432;2023-07-22T08:28:52;100652.55;;;21.36;27.34
64614;BME280;51025;37.772;-122.432;2023-07-22T08:31:20;100653.00;;;21.83;27.26
64614;BME280;51025;37.772;-122.432;2023-07-22T08:33:48;100652.02;;;21.26;27.08
64614;BME280;51025;37.772;-122.432;2023-07-22T08:36:17;100651.23;;;22.31;27.08
64614;BME280;51025;37.772;-122.432;2023-07-22T08:38:45;100648.37;;;21.00;27.24
64614;BME280;51025;37.772;-122.432;2023-07-22T08:41:15;100647.37;;;22.16;27.17
64614;BME280;51025;37.772;-122.432;2023-07-22T08:43:45;100646.35;;;22.09;27.22
64614;BME280;51025;37.772;-122.432;2023-07-22T08:46:16;100645.95;;;21.92;27.38
64614;BME280;51025;37.772;-122.432;2023-07-22T08:48:49;100644.33;;;21.68;27.25
64614;BME280;51025;37.772;-122.432;2023-07-22T08:51:19;100641.42;;;22.05;27.24
64614;BME280;51025;37.772;-122.432;2023-07-22T08:53:50;100639.72;;;21.78;27.14
64614;BME280;51025;37.772;-122.432;2023-07-22T08:56:19;100628.93;;;22.08;27.16
64614;BME280;51025;37.772;-122.432;2023-07-22T08:58:49;100625.27;;;22.35;26.77
64614;BME280;51025;37.772;-122.432;2023-07-22T09:01:19;100620.60;;;21.63;27.32
64614;BME280;51025;37.772;-122.432;2023-07-22T09:03:49;100624.85;;;21.28;27.22
64614;BME280;51025;37.772;-122.432;2023-07-22T09:06:19;100628.58;;;22.21;27.07
64614;BME280;51025;37.772;-122.432;2023-07-22T09:08:47;100635.68;;;22.15;26.79
64614;BME280;51025;37.772;-122.432;2023-07-22T09:11:16;100634.27;;;21.49;27.40
64614;BME280;51025;37.772;-122.432;2023-07-22T09:13:48;100637.61;;;22.75;26.62
64614;BME280;51025;37.772;-122.432;2023-07-22T09:16:18;100638.88;;;22.50;26.79
64614;BME280;51025;37.772;-122.432;2023-07-22T09:18:47;100633.67;;;21.63;26.59
64614;BME280;51025;37.772;-122.432;2023-07-22T09:21:15;100628.64;;;22.70;26.60
64614;BME280;51025;37.772;-122.432;2023-07-22T09:23:44;100624.47;;;22.48;27.07
64614;BME280;51025;37.772;-122.432;2023-07-22T09:26:13;100622.24;;;23.12;26.69
64614;BME280;51025;37.772;-122.432;2023-07-22T09:28:58;100620.39;;;22.63;26.58
64614;BME280;51025;37.772;-122.432;2023-07-22T09:31:27;100618.76;;;23.30;26.33
64614;BME280;51025;37.772;-122.432;2023-07-22T09:33:56;100618.91;;;21.49;27.22
64614;BME280;51025;37.772;-122.432;2023-07-22T09:36:53;100614.95;;;22.33;26.80
64614;BME280;51025;37.772;-122.432;2023-07-22T09:39:22;100606.64;;;21.56;27.18
64614;BME280;51025;37.772;-122.432;2023-07-22T09:41:51;100604.18;;;21.13;27.11
64614;BME280;51025;37.772;-122.432;2023-07-22T09:44:20;100608.79;;;22.17;26.89
64614;BME280;51025;37.772;-122.432;2023-07-22T09:46:49;100608.52;;;21.62;26.68
64614;BME280;51025;37.772;-122.432;2023-07-22T09:49:18;100610.61;;;22.29;27.07
64614;BME280;51025;37.772;-122.432;2023-07-22T09:51:46;100614.01;;;21.00;26.86
64614;BME280;51025;37.772;-122.432;2023-07-22T09:54:14;100617.13;;;22.16;26.86
64614;BME280;51025;37.772;-122.432;2023-07-22T09:56:47;100617.72;;;21.81;26.71
64614;BME280;51025;37.772;-122.432;2023-07-22T09:59:18;100616.63;;;23.36;26.11
64614;BME280;51025;37.772;-122.432;2023-07-22T10:01:50;100612.09;;;21.20;26.81
64614;BME280;51025;37.772;-122.432;2023-07-22T10:04:21;100609.09;;;21.68;27.11
64614;BME280;51025;37.772;-122.432;2023-07-22T10:06:52;100609.60;;;21.33;26.79
64614;BME280;51025;37.772;-122.432;2023-07-22T10:09:22;100608.93;;;22.66;26.27
64614;BME280;51025;37.772;-122.432;2023-07-22T10:11:53;100605.56;;;21.21;26.47
64614;BME280;51025;37.772;-122.432;2023-07-22T10:14:23;100601.16;;;22.23;26.94
64614;BME280;51025;37.772;-122.432;2023-07-22T10:16:52;100602.14;;;21.00;26.55
64614;BME280;51025;37.772;-122.432;2023-07-22T10:19:21;100605.58;;;21.49;26.80
64614;BME280;51025;37.772;-122.432;2023-07-22T10:21:51;100606.17;;;21.40;26.88
64614;BME280;51025;37.772;-122.432;2023-07-22T10:24:20;100607.64;;;21.76;26.91
64614;BME280;51025;37.772;-122.432;2023-07-22T10:26:49;100611.25;;;21.44;26.81
64614;BME280;51025;37.772;-122.432;2023-07-22T10:29:18;100616.80;;;21.98;26.68
64614;BME280;51025;37.772;-122.432;2023-07-22T10:31:48;100617.97;;;21.56;26.66
64614;BME280;51025;37.772;-122.432;2023-07-22T10:34:16;100613.53;;;21.45;27.06
64614;BME280;51025;37.772;-122.432;2023-07-22T10:36:48;100607.39;;;21.21;26.95
64614;BME280;51025;37.772;-122.432;2023-07-22T10:39:26;100601.21;;;22.04;26.82
64614;BME280;51025;37.772;-122.432;2023-07-22T10:42:01;100596.19;;;21.19;26.92
64614;BME280;51025;37.772;-122.432;2023-07-22T10:44:31;100591.46;;;21.91;26.94
64614;BME280;51025;37.772;-122.432;2023-07-22T10:47:00;100593.00;;;21.77;27.04
64614;BME280;51025;37.772;-122.432;2023-07-22T10:49:43;100589.98;;;20.86;27.19
64614;BME280;51025;37.772;-122.432;2023-07-22T10:52:12;100594.60;;;20.97;27.11
64614;BME280;51025;37.772;-122.432;2023-07-22T10:54:41;100587.44;;;21.95;26.59
64614;BME280;51025;37.772;-122.432;2023-07-22T10:57:26;100587.10;;;21.50;26.84
64614;BME280;51025;37.772;-122.432;2023-07-22T10:59:56;100582.21;;;21.68;26.72
64614;BME280;51025;37.772;-122.432;2023-07-22T11:02:25;100584.45;;;21.93;26.81
64614;BME280;51025;37.772;-122.432;2023-07-22T11:04:57;100581.85;;;22.15;26.39
64614;BME280;51025;37.772;-122.432;2023-07-22T11:07:41;100585.76;;;21.77;26.96
64614;BME280;51025;37.772;-122.432;2023-07-22T11:10:17;100579.23;;;22.28;26.58
64614;BME280;51025;37.772;-122.432;2023-07-22T11:12:46;100578.29;;;21.18;26.77
64614;BME280;51025;37.772;-122.432;2023-07-22T11:15:16;100574.52;;;21.01;26.91
64614;BME280;51025;37.772;-122.432;2023-07-22T11:17:45;100579.40;;;21.12;26.83
64614;BME280;51025;37.772;-122.432;2023-07-22T11:20:13;100579.57;;;21.16;26.73
64614;BME280;51025;37.772;-122.432;2023-07-22T11:22:42;100581.56;;;21.01;26.91
64614;BME280;51025;37.772;-122.432;2023-07-22T11:25:17;100578.15;;;21.71;26.60
64614;BME280;51025;37.772;-122.432;2023-07-22T11:27:46;100577.93;;;21.14;26.73
64614;BME280;51025;37.772;-122.432;2023-07-22T11:30:14;100575.78;;;21.60;26.69
64614;BME280;51025;37.772;-122.432;2023-07-22T11:32:44;100573.78;;;20.90;26.94
64614;BME280;51025;37.772;-122.432;2023-07-22T11:35:12;100571.35;;;21.03;27.14
64614;BME280;51025;37.772;-122.432;2023-07-22T11:37:44;100568.22;;;20.77;27.03
64614;BME280;51025;37.772;-122.432;2023-07-22T11:40:12;100564.77;;;21.78;26.82
64614;BME280;51025;37.772;-122.432;2023-07-22T11:42:41;100561.77;;;20.98;26.82
64614;BME280;51025;37.772;-122.432;2023-07-22T11:45:09;100565.25;;;21.64;26.56
64614;BME280;51025;37.772;-122.432;2023-07-22T11:47:39;100564.39;;;21.75;26.78
64614;BME280;51025;37.772;-122.432;2023-07-22T11:50:08;100563.59;;;21.65;26.87
64614;BME280;51025;37.772;-122.432;2023-07-22T11:52:36;100564.07;;;21.60;26.90
64614;BME280;51025;37.772;-122.432;2023-07-22T11:55:05;100570.29;;;20.87;26.85
64614;BME280;51025;37.772;-122.432;2023-07-22T11:57:33;100566.63;;;21.55;26.91
64614;BME280;51025;37.772;-122.432;2023-07-22T12:00:02;100568.31;;;21.44;26.65
64614;BME280;51025;37.772;-122.432;2023-07-22T12:02:30;100566.20;;;21.44;27.02
64614;BME280;51025;37.772;-122.432;2023-07-22T12:05:05;100566.78;;;21.06;26.96
64614;BME280;51025;37.772;-122.432;2023-07-22T12:07:34;100565.86;;;21.38;27.00
64614;BME280;51025;37.772;-122.432;2023-07-22T12:10:05;100560.29;;;20.59;26.99
64614;BME280;51025;37.772;-122.432;2023-07-22T12:12:34;100560.35;;;21.25;27.10
64614;BME280;51025;37.772;-122.432;2023-07-22T12:15:08;100559.91;;;20.94;26.97
64614;BME280;51025;37.772;-122.432;2023-07-22T12:17:48;100564.73;;;21.35;27.03
64614;BME280;51025;37.772;-122.432;2023-07-22T12:20:17;100571.64;;;21.22;27.08
64614;BME280;51025;37.772;-122.432;2023-07-22T12:22:46;100572.12;;;20.68;27.17
64614;BME280;51025;37.772;-122.432;2023-07-22T12:25:15;100571.90;;;21.31;26.97
64614;BME280;51025;37.772;-122.432;2023-07-22T12:27:44;100572.95;;;20.94;26.85
64614;BME280;51025;37.772;-122.432;2023-07-22T12:30:13;100578.95;;;20.85;26.97